Pagina principale
METAR-TAF:

METAR-TAF

Aeroporti :

Payerne, Svizzera

latitudine: 46-49N, longitudine: 006-57E, altezza: 490 m

Osservazione

Il bollettino è stato emesso 49 minuti fa, alle 12:50 UTC
Vento 2 kt da direzioni variabili
Temperature 12°C
Umidità 71%
Pressione 1019 hPa
Visibilità 10 km o più
Nubi sparse ad un'altezza di 2300 ft
Nuvoloso ad un'altezza di 3200 ft
Nuvoloso ad un'altezza di 4800 ft
pioggia debole

METAR: LSMP 191250Z VRB02KT 9999 -RA SCT023 BKN032 BKN048 12/07 Q1019 RMK BLU

Ora: 15:39 (13:39 UTC)


TAF: mancante

Osservazioni e previsioni meteorologiche di più di 4000 aeroporti (messaggi METAR e TAF).

Le stazioni disponibili sono rappresentate dai dischi gialli e rossi sulla carta.

Puntare il mouse per vedere il nome della stazione.

Clicca sopra per visualizzare le osservazioni e previsioni meteorologiche.

Per cambiare la mappa : fare clic sui pulsanti verdi con una croce nera per ingrandire, il pulsante verde con un trattino per diminuire, o sulla freccia verde per le mappe adiacenti.


METAR-TAF: